sensor_id;sensor_type;location;lat;lon;timestamp;temperature;humidity
19646;DHT22;9971;52.446;13.452;2022-07-23T00:03:23;19.90;99.90
19646;DHT22;9971;52.446;13.452;2022-07-23T00:08:25;19.90;99.90
19646;DHT22;9971;52.446;13.452;2022-07-23T00:13:27;19.80;99.90
19646;DHT22;9971;52.446;13.452;2022-07-23T00:18:30;19.80;99.90
19646;DHT22;9971;52.446;13.452;2022-07-23T00:23:32;19.80;99.90
19646;DHT22;9971;52.446;13.452;2022-07-23T00:28:34;19.80;99.90
19646;DHT22;9971;52.446;13.452;2022-07-23T00:33:37;19.80;99.90
19646;DHT22;9971;52.446;13.452;2022-07-23T00:38:39;19.70;99.90
19646;DHT22;9971;52.446;13.452;2022-07-23T00:43:41;19.70;99.90
19646;DHT22;9971;52.446;13.452;2022-07-23T00:48:44;19.70;99.90
19646;DHT22;9971;52.446;13.452;2022-07-23T00:53:46;19.80;99.90
19646;DHT22;9971;52.446;13.452;2022-07-23T00:58:48;19.70;99.90
19646;DHT22;9971;52.446;13.452;2022-07-23T01:03:51;19.70;99.90
19646;DHT22;9971;52.446;13.452;2022-07-23T01:08:53;19.70;99.90
19646;DHT22;9971;52.446;13.452;2022-07-23T01:13:55;19.70;99.90
19646;DHT22;9971;52.446;13.452;2022-07-23T01:18:58;19.70;99.90
19646;DHT22;9971;52.446;13.452;2022-07-23T01:24:01;19.70;99.90
19646;DHT22;9971;52.446;13.452;2022-07-23T01:29:03;19.70;99.90
19646;DHT22;9971;52.446;13.452;2022-07-23T01:34:05;19.60;99.90
19646;DHT22;9971;52.446;13.452;2022-07-23T01:39:07;19.50;99.90
19646;DHT22;9971;52.446;13.452;2022-07-23T01:44:09;19.40;99.90
19646;DHT22;9971;52.446;13.452;2022-07-23T01:49:11;19.40;99.90
19646;DHT22;9971;52.446;13.452;2022-07-23T01:54:14;19.40;99.90
19646;DHT22;9971;52.446;13.452;2022-07-23T01:59:16;19.40;99.90
19646;DHT22;9971;52.446;13.452;2022-07-23T02:04:19;19.30;99.90
19646;DHT22;9971;52.446;13.452;2022-07-23T02:09:21;19.30;99.90
19646;DHT22;9971;52.446;13.452;2022-07-23T02:14:23;19.30;99.90
19646;DHT22;9971;52.446;13.452;2022-07-23T02:19:25;19.30;99.90
19646;DHT22;9971;52.446;13.452;2022-07-23T02:24:27;19.40;99.90
19646;DHT22;9971;52.446;13.452;2022-07-23T02:29:29;19.40;99.90
19646;DHT22;9971;52.446;13.452;2022-07-23T02:34:32;19.50;99.90
19646;DHT22;9971;52.446;13.452;2022-07-23T02:39:34;19.50;99.90
19646;DHT22;9971;52.446;13.452;2022-07-23T02:44:36;19.50;99.90
19646;DHT22;9971;52.446;13.452;2022-07-23T02:49:38;19.50;99.90
19646;DHT22;9971;52.446;13.452;2022-07-23T02:54:40;19.50;99.90
19646;DHT22;9971;52.446;13.452;2022-07-23T02:59:43;19.50;99.90
19646;DHT22;9971;52.446;13.452;2022-07-23T03:04:45;19.40;99.90
19646;DHT22;9971;52.446;13.452;2022-07-23T03:09:47;19.40;99.90
19646;DHT22;9971;52.446;13.452;2022-07-23T03:14:50;19.30;99.90
19646;DHT22;9971;52.446;13.452;2022-07-23T03:19:52;19.30;99.90
19646;DHT22;9971;52.446;13.452;2022-07-23T03:24:55;19.30;99.90
19646;DHT22;9971;52.446;13.452;2022-07-23T03:29:57;19.20;99.90
19646;DHT22;9971;52.446;13.452;2022-07-23T03:34:59;19.20;99.90
19646;DHT22;9971;52.446;13.452;2022-07-23T03:40:02;19.30;99.90
19646;DHT22;9971;52.446;13.452;2022-07-23T03:45:04;19.30;99.90
19646;DHT22;9971;52.446;13.452;2022-07-23T03:50:07;19.30;99.90
19646;DHT22;9971;52.446;13.452;2022-07-23T03:55:09;19.30;99.90
19646;DHT22;9971;52.446;13.452;2022-07-23T04:00:15;19.30;99.90
19646;DHT22;9971;52.446;13.452;2022-07-23T04:05:18;19.30;99.90
19646;DHT22;9971;52.446;13.452;2022-07-23T04:10:20;19.20;99.90
19646;DHT22;9971;52.446;13.452;2022-07-23T04:15:23;19.20;99.90
19646;DHT22;9971;52.446;13.452;2022-07-23T04:20:25;19.10;99.90
19646;DHT22;9971;52.446;13.452;2022-07-23T04:25:27;19.00;99.90
19646;DHT22;9971;52.446;13.452;2022-07-23T04:30:29;18.90;99.90
19646;DHT22;9971;52.446;13.452;2022-07-23T04:35:32;18.80;99.90
19646;DHT22;9971;52.446;13.452;2022-07-23T04:40:34;18.80;99.90
19646;DHT22;9971;52.446;13.452;2022-07-23T04:45:36;18.70;99.90
19646;DHT22;9971;52.446;13.452;2022-07-23T04:50:38;18.60;99.90
19646;DHT22;9971;52.446;13.452;2022-07-23T04:55:41;18.30;99.90
19646;DHT22;9971;52.446;13.452;2022-07-23T05:00:43;18.10;99.90
19646;DHT22;9971;52.446;13.452;2022-07-23T05:05:46;18.00;99.90
19646;DHT22;9971;52.446;13.452;2022-07-23T05:10:48;18.00;99.90
19646;DHT22;9971;52.446;13.452;2022-07-23T05:15:51;17.90;99.90
19646;DHT22;9971;52.446;13.452;2022-07-23T05:20:53;17.90;99.90
19646;DHT22;9971;52.446;13.452;2022-07-23T05:25:55;17.90;99.90
19646;DHT22;9971;52.446;13.452;2022-07-23T05:30:57;17.80;99.90
19646;DHT22;9971;52.446;13.452;2022-07-23T05:36:02;17.80;99.90
19646;DHT22;9971;52.446;13.452;2022-07-23T05:41:03;17.80;99.90
19646;DHT22;9971;52.446;13.452;2022-07-23T05:46:06;17.70;99.90
19646;DHT22;9971;52.446;13.452;2022-07-23T05:51:08;17.70;99.90
19646;DHT22;9971;52.446;13.452;2022-07-23T05:56:10;17.70;99.90
19646;DHT22;9971;52.446;13.452;2022-07-23T06:01:13;17.70;99.90
19646;DHT22;9971;52.446;13.452;2022-07-23T06:06:15;17.70;99.90
19646;DHT22;9971;52.446;13.452;2022-07-23T06:11:18;17.70;99.90
19646;DHT22;9971;52.446;13.452;2022-07-23T06:16:20;17.70;99.90
19646;DHT22;9971;52.446;13.452;2022-07-23T06:21:22;17.70;99.90
19646;DHT22;9971;52.446;13.452;2022-07-23T06:26:25;17.70;99.90
19646;DHT22;9971;52.446;13.452;2022-07-23T06:31:27;17.70;99.90
19646;DHT22;9971;52.446;13.452;2022-07-23T06:36:30;17.70;99.90
19646;DHT22;9971;52.446;13.452;2022-07-23T06:41:32;17.70;99.90
19646;DHT22;9971;52.446;13.452;2022-07-23T06:46:34;17.70;99.90
19646;DHT22;9971;52.446;13.452;2022-07-23T06:51:37;17.80;99.90
19646;DHT22;9971;52.446;13.452;2022-07-23T06:56:40;17.70;99.90
19646;DHT22;9971;52.446;13.452;2022-07-23T07:01:44;17.90;99.90
19646;DHT22;9971;52.446;13.452;2022-07-23T07:06:46;18.00;99.90
19646;DHT22;9971;52.446;13.452;2022-07-23T07:11:49;18.10;99.90
19646;DHT22;9971;52.446;13.452;2022-07-23T07:16:51;18.10;99.90
19646;DHT22;9971;52.446;13.452;2022-07-23T07:21:54;18.10;99.90
19646;DHT22;9971;52.446;13.452;2022-07-23T07:26:56;18.10;99.90
19646;DHT22;9971;52.446;13.452;2022-07-23T07:31:58;18.10;99.90
19646;DHT22;9971;52.446;13.452;2022-07-23T07:37:01;18.30;99.90
19646;DHT22;9971;52.446;13.452;2022-07-23T07:42:03;18.30;99.90
19646;DHT22;9971;52.446;13.452;2022-07-23T07:47:06;18.50;99.90
19646;DHT22;9971;52.446;13.452;2022-07-23T07:52:08;18.60;99.90
19646;DHT22;9971;52.446;13.452;2022-07-23T07:57:10;18.80;99.90
19646;DHT22;9971;52.446;13.452;2022-07-23T08:02:13;18.80;99.90
19646;DHT22;9971;52.446;13.452;2022-07-23T08:07:15;18.90;99.90
19646;DHT22;9971;52.446;13.452;2022-07-23T08:12:17;19.10;99.90
19646;DHT22;9971;52.446;13.452;2022-07-23T08:17:20;19.10;99.90
19646;DHT22;9971;52.446;13.452;2022-07-23T08:22:23;19.30;99.90
19646;DHT22;9971;52.446;13.452;2022-07-23T08:27:26;19.50;99.90
19646;DHT22;9971;52.446;13.452;2022-07-23T08:32:28;19.70;99.90
19646;DHT22;9971;52.446;13.452;2022-07-23T08:37:31;20.10;99.90
19646;DHT22;9971;52.446;13.452;2022-07-23T08:42:34;20.30;99.90
19646;DHT22;9971;52.446;13.452;2022-07-23T08:47:37;20.50;99.90
19646;DHT22;9971;52.446;13.452;2022-07-23T08:52:39;20.70;99.90
19646;DHT22;9971;52.446;13.452;2022-07-23T08:57:41;20.80;99.90
19646;DHT22;9971;52.446;13.452;2022-07-23T09:02:43;20.90;99.90
19646;DHT22;9971;52.446;13.452;2022-07-23T09:12:59;21.00;99.90
19646;DHT22;9971;52.446;13.452;2022-07-23T09:18:02;21.10;99.90
19646;DHT22;9971;52.446;13.452;2022-07-23T09:23:04;21.40;99.90
19646;DHT22;9971;52.446;13.452;2022-07-23T09:28:08;21.60;99.90
19646;DHT22;9971;52.446;13.452;2022-07-23T09:33:12;21.90;99.90
19646;DHT22;9971;52.446;13.452;2022-07-23T09:38:13;22.10;99.90
19646;DHT22;9971;52.446;13.452;2022-07-23T09:43:25;22.20;99.90
19646;DHT22;9971;52.446;13.452;2022-07-23T09:48:17;22.20;99.90
19646;DHT22;9971;52.446;13.452;2022-07-23T09:53:24;22.30;99.90
19646;DHT22;9971;52.446;13.452;2022-07-23T09:58:25;22.40;99.90
19646;DHT22;9971;52.446;13.452;2022-07-23T10:03:28;22.50;99.90
19646;DHT22;9971;52.446;13.452;2022-07-23T10:08:30;22.80;99.90
19646;DHT22;9971;52.446;13.452;2022-07-23T10:13:32;23.00;99.90
19646;DHT22;9971;52.446;13.452;2022-07-23T10:18:40;23.20;99.90
19646;DHT22;9971;52.446;13.452;2022-07-23T10:23:48;23.10;99.90
19646;DHT22;9971;52.446;13.452;2022-07-23T10:28:58;23.10;99.90
19646;DHT22;9971;52.446;13.452;2022-07-23T10:34:19;23.30;99.90
19646;DHT22;9971;52.446;13.452;2022-07-23T10:39:22;23.60;99.90
19646;DHT22;9971;52.446;13.452;2022-07-23T10:44:21;23.80;99.90
19646;DHT22;9971;52.446;13.452;2022-07-23T10:49:25;23.90;99.90
19646;DHT22;9971;52.446;13.452;2022-07-23T10:54:26;24.10;99.90
19646;DHT22;9971;52.446;13.452;2022-07-23T10:59:28;24.30;99.90
19646;DHT22;9971;52.446;13.452;2022-07-23T11:04:48;24.40;99.90
19646;DHT22;9971;52.446;13.452;2022-07-23T11:09:49;24.30;99.90
19646;DHT22;9971;52.446;13.452;2022-07-23T11:15:12;24.90;99.90
19646;DHT22;9971;52.446;13.452;2022-07-23T11:20:16;25.30;99.90
19646;DHT22;9971;52.446;13.452;2022-07-23T11:25:32;25.30;99.90
19646;DHT22;9971;52.446;13.452;2022-07-23T11:30:43;25.20;99.90
19646;DHT22;9971;52.446;13.452;2022-07-23T11:35:44;25.40;99.90
19646;DHT22;9971;52.446;13.452;2022-07-23T11:40:50;25.90;99.90
19646;DHT22;9971;52.446;13.452;2022-07-23T11:45:52;26.10;99.90
19646;DHT22;9971;52.446;13.452;2022-07-23T11:50:53;26.80;99.90
19646;DHT22;9971;52.446;13.452;2022-07-23T11:56:03;27.00;99.90
19646;DHT22;9971;52.446;13.452;2022-07-23T12:00:57;27.00;99.90
19646;DHT22;9971;52.446;13.452;2022-07-23T12:06:00;26.90;99.90
19646;DHT22;9971;52.446;13.452;2022-07-23T12:11:02;26.80;99.90
19646;DHT22;9971;52.446;13.452;2022-07-23T12:16:05;27.30;99.90
19646;DHT22;9971;52.446;13.452;2022-07-23T12:21:07;27.30;99.90
19646;DHT22;9971;52.446;13.452;2022-07-23T12:26:10;26.80;99.90
19646;DHT22;9971;52.446;13.452;2022-07-23T12:31:12;27.30;99.90
19646;DHT22;9971;52.446;13.452;2022-07-23T12:36:14;27.80;99.90
19646;DHT22;9971;52.446;13.452;2022-07-23T12:41:17;27.70;99.90
19646;DHT22;9971;52.446;13.452;2022-07-23T12:46:19;28.00;99.90
19646;DHT22;9971;52.446;13.452;2022-07-23T12:51:22;27.70;99.90
19646;DHT22;9971;52.446;13.452;2022-07-23T12:56:30;27.30;99.90
19646;DHT22;9971;52.446;13.452;2022-07-23T13:01:33;27.10;99.90
19646;DHT22;9971;52.446;13.452;2022-07-23T13:06:35;26.90;99.90
19646;DHT22;9971;52.446;13.452;2022-07-23T13:11:36;26.80;99.90
19646;DHT22;9971;52.446;13.452;2022-07-23T13:16:38;26.50;99.90
19646;DHT22;9971;52.446;13.452;2022-07-23T13:21:40;26.40;99.90
19646;DHT22;9971;52.446;13.452;2022-07-23T13:26:42;26.60;99.90
19646;DHT22;9971;52.446;13.452;2022-07-23T13:31:44;26.30;99.90
19646;DHT22;9971;52.446;13.452;2022-07-23T13:42:16;27.40;99.90
19646;DHT22;9971;52.446;13.452;2022-07-23T13:47:18;27.80;99.90
19646;DHT22;9971;52.446;13.452;2022-07-23T13:52:20;28.20;99.10
19646;DHT22;9971;52.446;13.452;2022-07-23T13:57:23;27.90;99.30
19646;DHT22;9971;52.446;13.452;2022-07-23T14:02:24;27.60;99.90
19646;DHT22;9971;52.446;13.452;2022-07-23T14:07:27;27.80;98.50
19646;DHT22;9971;52.446;13.452;2022-07-23T14:12:29;27.80;97.90
19646;DHT22;9971;52.446;13.452;2022-07-23T14:17:31;27.90;97.90
19646;DHT22;9971;52.446;13.452;2022-07-23T14:22:33;28.20;97.20
19646;DHT22;9971;52.446;13.452;2022-07-23T14:27:35;28.00;97.00
19646;DHT22;9971;52.446;13.452;2022-07-23T14:32:37;27.80;97.00
19646;DHT22;9971;52.446;13.452;2022-07-23T14:37:40;27.30;96.50
19646;DHT22;9971;52.446;13.452;2022-07-23T14:42:43;27.00;97.50
19646;DHT22;9971;52.446;13.452;2022-07-23T14:47:46;27.30;97.50
19646;DHT22;9971;52.446;13.452;2022-07-23T14:52:47;27.10;97.60
19646;DHT22;9971;52.446;13.452;2022-07-23T14:57:50;27.00;97.50
19646;DHT22;9971;52.446;13.452;2022-07-23T15:02:52;26.90;97.20
19646;DHT22;9971;52.446;13.452;2022-07-23T15:07:54;27.30;96.90
19646;DHT22;9971;52.446;13.452;2022-07-23T15:12:56;28.00;95.60
19646;DHT22;9971;52.446;13.452;2022-07-23T15:17:59;28.30;94.50
19646;DHT22;9971;52.446;13.452;2022-07-23T15:23:01;28.50;93.50
19646;DHT22;9971;52.446;13.452;2022-07-23T15:28:04;28.40;93.20
19646;DHT22;9971;52.446;13.452;2022-07-23T15:33:06;28.50;92.80
19646;DHT22;9971;52.446;13.452;2022-07-23T15:38:09;28.70;92.20
19646;DHT22;9971;52.446;13.452;2022-07-23T15:43:11;28.30;92.00
19646;DHT22;9971;52.446;13.452;2022-07-23T15:48:14;28.80;91.40
19646;DHT22;9971;52.446;13.452;2022-07-23T15:53:16;29.00;90.80
19646;DHT22;9971;52.446;13.452;2022-07-23T15:58:18;28.50;90.80
19646;DHT22;9971;52.446;13.452;2022-07-23T16:03:21;28.50;90.80
19646;DHT22;9971;52.446;13.452;2022-07-23T16:08:23;28.40;90.60
19646;DHT22;9971;52.446;13.452;2022-07-23T16:13:25;28.10;90.60
19646;DHT22;9971;52.446;13.452;2022-07-23T16:18:27;27.90;91.20
19646;DHT22;9971;52.446;13.452;2022-07-23T16:23:30;28.10;92.00
19646;DHT22;9971;52.446;13.452;2022-07-23T16:28:32;28.10;91.20
19646;DHT22;9971;52.446;13.452;2022-07-23T16:33:35;28.10;90.20
19646;DHT22;9971;52.446;13.452;2022-07-23T16:38:37;28.20;89.90
19646;DHT22;9971;52.446;13.452;2022-07-23T16:43:39;28.30;90.10
19646;DHT22;9971;52.446;13.452;2022-07-23T16:48:41;28.30;90.00
19646;DHT22;9971;52.446;13.452;2022-07-23T16:53:44;28.40;89.80
19646;DHT22;9971;52.446;13.452;2022-07-23T16:58:46;28.40;88.50
19646;DHT22;9971;52.446;13.452;2022-07-23T17:03:49;28.40;89.40
19646;DHT22;9971;52.446;13.452;2022-07-23T17:08:51;28.40;86.80
19646;DHT22;9971;52.446;13.452;2022-07-23T17:13:54;28.40;85.70
19646;DHT22;9971;52.446;13.452;2022-07-23T17:18:56;28.40;84.30
19646;DHT22;9971;52.446;13.452;2022-07-23T17:23:59;28.40;83.10
19646;DHT22;9971;52.446;13.452;2022-07-23T17:29:01;28.40;82.90
19646;DHT22;9971;52.446;13.452;2022-07-23T17:34:04;28.40;82.80
19646;DHT22;9971;52.446;13.452;2022-07-23T17:39:06;28.30;81.70
19646;DHT22;9971;52.446;13.452;2022-07-23T17:44:09;28.40;82.60
19646;DHT22;9971;52.446;13.452;2022-07-23T17:49:11;28.30;81.10
19646;DHT22;9971;52.446;13.452;2022-07-23T17:54:13;28.30;80.10
19646;DHT22;9971;52.446;13.452;2022-07-23T17:59:16;28.20;80.30
19646;DHT22;9971;52.446;13.452;2022-07-23T18:04:19;28.20;79.60
19646;DHT22;9971;52.446;13.452;2022-07-23T18:09:21;28.20;79.50
19646;DHT22;9971;52.446;13.452;2022-07-23T18:14:23;28.10;79.10
19646;DHT22;9971;52.446;13.452;2022-07-23T18:19:26;28.10;78.80
19646;DHT22;9971;52.446;13.452;2022-07-23T18:24:29;28.10;79.00
19646;DHT22;9971;52.446;13.452;2022-07-23T18:29:31;28.00;78.60
19646;DHT22;9971;52.446;13.452;2022-07-23T18:34:33;28.00;78.70
19646;DHT22;9971;52.446;13.452;2022-07-23T18:39:36;27.90;78.20
19646;DHT22;9971;52.446;13.452;2022-07-23T18:44:38;27.90;78.40
19646;DHT22;9971;52.446;13.452;2022-07-23T18:49:41;27.90;78.90
19646;DHT22;9971;52.446;13.452;2022-07-23T18:54:43;27.90;78.80
19646;DHT22;9971;52.446;13.452;2022-07-23T18:59:45;27.90;78.00
19646;DHT22;9971;52.446;13.452;2022-07-23T19:04:48;27.80;77.40
19646;DHT22;9971;52.446;13.452;2022-07-23T19:09:50;27.80;77.50
19646;DHT22;9971;52.446;13.452;2022-07-23T19:14:53;27.70;77.20
19646;DHT22;9971;52.446;13.452;2022-07-23T19:19:55;27.70;75.90
19646;DHT22;9971;52.446;13.452;2022-07-23T19:24:58;27.70;77.30
19646;DHT22;9971;52.446;13.452;2022-07-23T19:30:00;27.60;76.50
19646;DHT22;9971;52.446;13.452;2022-07-23T19:35:03;27.60;77.50
19646;DHT22;9971;52.446;13.452;2022-07-23T19:40:06;27.60;77.60
19646;DHT22;9971;52.446;13.452;2022-07-23T19:45:08;27.50;77.50
19646;DHT22;9971;52.446;13.452;2022-07-23T19:50:11;27.50;76.80
19646;DHT22;9971;52.446;13.452;2022-07-23T19:55:13;27.50;77.40
19646;DHT22;9971;52.446;13.452;2022-07-23T20:00:15;27.50;77.90
19646;DHT22;9971;52.446;13.452;2022-07-23T20:05:18;27.40;78.90
19646;DHT22;9971;52.446;13.452;2022-07-23T20:10:20;27.50;79.70
19646;DHT22;9971;52.446;13.452;2022-07-23T20:15:22;27.40;80.70
19646;DHT22;9971;52.446;13.452;2022-07-23T20:20:25;27.40;80.00
19646;DHT22;9971;52.446;13.452;2022-07-23T20:25:27;27.40;79.50
19646;DHT22;9971;52.446;13.452;2022-07-23T20:30:38;27.40;79.80
19646;DHT22;9971;52.446;13.452;2022-07-23T20:35:41;27.40;80.30
19646;DHT22;9971;52.446;13.452;2022-07-23T20:40:45;27.40;79.10
19646;DHT22;9971;52.446;13.452;2022-07-23T20:45:48;27.40;80.70
19646;DHT22;9971;52.446;13.452;2022-07-23T20:50:54;27.40;80.30
19646;DHT22;9971;52.446;13.452;2022-07-23T20:55:56;27.30;81.20
19646;DHT22;9971;52.446;13.452;2022-07-23T21:00:58;27.30;79.30
19646;DHT22;9971;52.446;13.452;2022-07-23T21:06:01;27.30;80.50
19646;DHT22;9971;52.446;13.452;2022-07-23T21:11:03;27.30;81.60
19646;DHT22;9971;52.446;13.452;2022-07-23T21:16:06;27.30;80.90
19646;DHT22;9971;52.446;13.452;2022-07-23T21:21:09;27.20;81.10
19646;DHT22;9971;52.446;13.452;2022-07-23T21:26:13;27.20;81.30
19646;DHT22;9971;52.446;13.452;2022-07-23T21:31:14;27.20;81.40
19646;DHT22;9971;52.446;13.452;2022-07-23T21:36:17;27.20;81.40
19646;DHT22;9971;52.446;13.452;2022-07-23T21:41:25;27.20;82.40
19646;DHT22;9971;52.446;13.452;2022-07-23T21:46:28;27.20;81.60
19646;DHT22;9971;52.446;13.452;2022-07-23T21:51:31;27.20;81.90
19646;DHT22;9971;52.446;13.452;2022-07-23T21:56:33;27.20;82.00
19646;DHT22;9971;52.446;13.452;2022-07-23T22:01:35;27.20;82.10
19646;DHT22;9971;52.446;13.452;2022-07-23T22:06:37;27.20;82.30
19646;DHT22;9971;52.446;13.452;2022-07-23T22:11:40;27.20;82.50
19646;DHT22;9971;52.446;13.452;2022-07-23T22:16:42;27.10;82.50
19646;DHT22;9971;52.446;13.452;2022-07-23T22:21:45;27.10;82.80
19646;DHT22;9971;52.446;13.452;2022-07-23T22:26:48;27.10;82.90
19646;DHT22;9971;52.446;13.452;2022-07-23T22:31:51;27.10;83.20
19646;DHT22;9971;52.446;13.452;2022-07-23T22:36:53;27.10;83.30
19646;DHT22;9971;52.446;13.452;2022-07-23T22:41:56;27.10;83.50
19646;DHT22;9971;52.446;13.452;2022-07-23T22:47:00;27.10;83.70
19646;DHT22;9971;52.446;13.452;2022-07-23T22:52:03;27.10;84.00
19646;DHT22;9971;52.446;13.452;2022-07-23T22:57:05;27.00;84.10
19646;DHT22;9971;52.446;13.452;2022-07-23T23:02:08;27.10;84.40
19646;DHT22;9971;52.446;13.452;2022-07-23T23:07:10;27.00;84.30
19646;DHT22;9971;52.446;13.452;2022-07-23T23:12:13;27.00;84.60
19646;DHT22;9971;52.446;13.452;2022-07-23T23:17:15;27.00;84.60
19646;DHT22;9971;52.446;13.452;2022-07-23T23:22:17;27.00;84.60
19646;DHT22;9971;52.446;13.452;2022-07-23T23:27:20;26.90;84.60
19646;DHT22;9971;52.446;13.452;2022-07-23T23:32:22;27.00;85.60
19646;DHT22;9971;52.446;13.452;2022-07-23T23:37:25;26.90;84.80
19646;DHT22;9971;52.446;13.452;2022-07-23T23:42:27;26.90;84.90
19646;DHT22;9971;52.446;13.452;2022-07-23T23:47:42;26.90;85.00
19646;DHT22;9971;52.446;13.452;2022-07-23T23:52:50;26.90;85.10
19646;DHT22;9971;52.446;13.452;2022-07-23T23:57:53;26.90;85.10
